createdAt,value
2019-05-10T00:08:13.000Z,51.2
2019-05-10T00:18:11.000Z,51.5
2019-05-10T00:28:11.000Z,51.8
2019-05-10T00:38:12.000Z,52.2
2019-05-10T00:48:12.000Z,52.5
2019-05-10T00:58:12.000Z,52.4
2019-05-10T01:08:12.000Z,52.2
2019-05-10T01:18:12.000Z,51.5
2019-05-10T01:28:12.000Z,51
2019-05-10T01:38:12.000Z,49.9
2019-05-10T01:48:12.000Z,50.2
2019-05-10T01:58:12.000Z,49.5
2019-05-10T02:08:12.000Z,49.1
2019-05-10T02:18:12.000Z,49
2019-05-10T02:28:14.000Z,48.9
2019-05-10T02:38:14.000Z,49.3
2019-05-10T02:48:12.000Z,50.2
2019-05-10T02:58:12.000Z,51.5
2019-05-10T03:08:12.000Z,51.6
2019-05-10T03:18:14.000Z,51.8
2019-05-10T03:28:12.000Z,52.3
2019-05-10T03:38:12.000Z,52.1
2019-05-10T03:48:12.000Z,52.3
2019-05-10T03:58:12.000Z,52.5
2019-05-10T04:08:12.000Z,52.5
2019-05-10T04:18:12.000Z,52.5
2019-05-10T04:28:14.000Z,52.3
2019-05-10T04:38:12.000Z,52.2
2019-05-10T04:48:12.000Z,52.2
2019-05-10T04:58:13.000Z,52.3
2019-05-10T05:08:14.000Z,52.3
2019-05-10T05:18:12.000Z,52.4
2019-05-10T05:28:12.000Z,53.1
2019-05-10T05:38:12.000Z,55
2019-05-10T05:48:12.000Z,55.1
2019-05-10T05:58:12.000Z,55.3
2019-05-10T06:08:12.000Z,54.2
2019-05-10T06:18:12.000Z,54.4
2019-05-10T06:28:13.000Z,54.2
2019-05-10T06:38:12.000Z,54.1
2019-05-10T06:48:13.000Z,54.2
2019-05-10T06:58:12.000Z,54.2
2019-05-10T07:08:13.000Z,54.1
2019-05-10T07:18:12.000Z,54
2019-05-10T07:28:12.000Z,54
2019-05-10T07:38:13.000Z,54
2019-05-10T07:48:14.000Z,53.9
2019-05-10T07:58:13.000Z,53.8
2019-05-10T08:08:13.000Z,53.7
2019-05-10T08:18:13.000Z,53.7
2019-05-10T08:28:13.000Z,53.7
2019-05-10T08:38:13.000Z,52.6
2019-05-10T08:48:14.000Z,53.5
2019-05-10T08:58:13.000Z,53.9
2019-05-10T09:08:13.000Z,53.9
2019-05-10T09:18:13.000Z,54
2019-05-10T09:28:14.000Z,54
2019-05-10T09:38:13.000Z,54.3
2019-05-10T09:48:13.000Z,54.3
2019-05-10T09:58:13.000Z,54.3
2019-05-10T10:08:13.000Z,54.2
2019-05-10T10:18:13.000Z,54.3
2019-05-10T10:28:14.000Z,54.3
2019-05-10T10:38:13.000Z,54.3
2019-05-10T10:48:13.000Z,54.5
2019-05-10T10:58:13.000Z,54.5
2019-05-10T11:08:14.000Z,54.6
2019-05-10T11:18:13.000Z,54.7
2019-05-10T11:28:13.000Z,54.6
2019-05-10T11:38:13.000Z,54.8
2019-05-10T11:48:13.000Z,54.8
2019-05-10T11:58:13.000Z,54.5
2019-05-10T12:08:13.000Z,54.2
2019-05-10T12:18:16.000Z,54
2019-05-10T12:28:13.000Z,53.9
2019-05-10T12:38:13.000Z,54.2
2019-05-10T12:48:15.000Z,54.4
2019-05-10T12:58:14.000Z,54.1
2019-05-10T13:08:13.000Z,54.1
2019-05-10T13:18:13.000Z,54.1
2019-05-10T13:28:13.000Z,54.2
2019-05-10T13:38:13.000Z,54.2
2019-05-10T13:48:13.000Z,54
2019-05-10T13:58:13.000Z,54.1
2019-05-10T14:08:13.000Z,54.4
2019-05-10T14:18:13.000Z,55.1
2019-05-10T14:38:14.000Z,56.9
2019-05-10T14:48:14.000Z,59.5
2019-05-10T14:58:14.000Z,59.9
2019-05-10T15:08:18.000Z,60.3
2019-05-10T15:18:14.000Z,60.5
2019-05-10T15:28:18.000Z,60.5
2019-05-10T15:38:14.000Z,60.3
2019-05-10T15:48:18.000Z,59.8
2019-05-10T15:58:14.000Z,59.3
2019-05-10T16:08:14.000Z,58.7
2019-05-10T16:18:14.000Z,57.6
2019-05-10T16:28:14.000Z,57.3
2019-05-10T16:38:18.000Z,56.5
2019-05-10T16:48:14.000Z,56.6
2019-05-10T16:58:14.000Z,57
2019-05-10T17:08:14.000Z,56.2
2019-05-10T17:18:14.000Z,55.5
2019-05-10T17:28:14.000Z,54.5
2019-05-10T17:38:14.000Z,55.5
2019-05-10T17:48:14.000Z,55.5
2019-05-10T17:58:14.000Z,56.2
2019-05-10T18:08:14.000Z,56.9
2019-05-10T18:18:14.000Z,57.4
2019-05-10T18:28:16.000Z,58.1
2019-05-10T18:38:15.000Z,58
2019-05-10T18:48:14.000Z,58.2
2019-05-10T18:58:18.000Z,58.7
2019-05-10T19:08:14.000Z,58.9
2019-05-10T19:18:14.000Z,59.1
2019-05-10T19:28:14.000Z,59
2019-05-10T19:38:14.000Z,58.9
2019-05-10T19:48:14.000Z,58.9
2019-05-10T19:58:14.000Z,58.7
2019-05-10T20:08:14.000Z,58.5
2019-05-10T20:18:14.000Z,53.7
2019-05-10T20:28:14.000Z,57.2
2019-05-10T20:38:15.000Z,57.2
2019-05-10T20:48:14.000Z,57.2
2019-05-10T20:58:14.000Z,57.1
2019-05-10T21:08:14.000Z,56.8
2019-05-10T21:18:15.000Z,56.7
2019-05-10T21:28:15.000Z,56.6
2019-05-10T21:38:17.000Z,56.6
2019-05-10T21:48:17.000Z,56.5
2019-05-10T21:58:15.000Z,56.4
2019-05-10T22:08:15.000Z,56.3
2019-05-10T22:18:15.000Z,56.2
2019-05-10T22:28:15.000Z,56
2019-05-10T22:38:15.000Z,56.2
2019-05-10T22:58:15.000Z,56.8
2019-05-10T23:08:15.000Z,48.4
2019-05-10T23:18:15.000Z,48.4
2019-05-10T23:28:15.000Z,48.2
2019-05-10T23:38:15.000Z,48.3
2019-05-10T23:48:16.000Z,48.5
2019-05-10T23:58:15.000Z,48.6
